Blissfield, Ohio
Current Conditions -  °F | °C
As of 4:35 PM on Friday 28 Nov 2014 (Local Time) from K4I3 Reporting Station
Broken Clouds Broken Clouds  
Wind Chill: 20°   Ceiling: 4400
Heat Index: 28°   Visibility: 10mi
Dew Point: 19°   Wind: 8mph
Humidity: 69%   Direction: 210°SSW
Pressure: 30.22"   Gusts: NA
Location:  40.4°N, 81.97°W
Report Text: K4I3 282135Z AUTO 21007KT 10SM SCT014 SCT025 BKN044 M02/M07 A3022 RMK AO2
Loading
Personal Weather Stations






























Interactive Weather Map New forecast layout! Learn more

10-Day Weather Forecast

Advertisements
Track Severe Weather on mobile